createdAt,value
2019-04-29T00:01:30.559Z,61.70
2019-04-29T00:04:00.525Z,61.63
2019-04-29T00:06:30.620Z,61.48
2019-04-29T00:09:00.560Z,61.40
2019-04-29T00:11:33.677Z,61.39
2019-04-29T00:14:03.571Z,61.66
2019-04-29T00:16:39.863Z,61.65
2019-04-29T00:19:19.021Z,61.61
2019-04-29T00:21:50.029Z,61.44
2019-04-29T00:24:20.865Z,61.38
2019-04-29T00:26:50.773Z,61.33
2019-04-29T00:29:20.804Z,61.37
2019-04-29T00:31:50.723Z,61.30
2019-04-29T00:34:20.965Z,61.17
2019-04-29T00:37:04.138Z,61.31
2019-04-29T00:39:57.357Z,61.40
2019-04-29T00:42:40.956Z,61.38
2019-04-29T00:45:10.974Z,61.41
2019-04-29T00:47:40.851Z,61.25
2019-04-29T00:50:12.422Z,61.12
2019-04-29T00:52:43.272Z,61.27
2019-04-29T00:55:16.096Z,61.44
2019-04-29T00:57:46.269Z,61.32
2019-04-29T01:00:25.681Z,61.34
2019-04-29T01:02:55.697Z,61.25
2019-04-29T01:05:25.835Z,61.26
2019-04-29T01:07:55.792Z,61.29
2019-04-29T01:10:25.953Z,61.35
2019-04-29T01:12:55.961Z,61.36
2019-04-29T01:15:25.817Z,61.30
2019-04-29T01:17:55.948Z,61.36
2019-04-29T01:20:25.817Z,61.45
2019-04-29T01:22:55.690Z,61.59
2019-04-29T01:25:25.789Z,61.70
2019-04-29T01:28:04.438Z,61.59
2019-04-29T01:31:09.810Z,61.57
2019-04-29T01:33:39.695Z,61.69
2019-04-29T01:36:40.998Z,62.06
2019-04-29T01:39:12.789Z,62.08
2019-04-29T01:42:00.336Z,62.11
2019-04-29T01:44:31.958Z,62.17
2019-04-29T01:47:01.825Z,62.46
2019-04-29T01:49:31.681Z,62.35
2019-04-29T01:52:02.003Z,62.22
2019-04-29T01:54:31.832Z,62.35
2019-04-29T01:57:01.794Z,62.36
2019-04-29T01:59:32.179Z,62.30
2019-04-29T02:02:01.955Z,62.10
2019-04-29T02:04:31.847Z,61.99
2019-04-29T02:07:03.424Z,61.87
2019-04-29T02:09:38.335Z,61.86
2019-04-29T02:12:08.490Z,61.67
2019-04-29T02:14:38.495Z,61.97
2019-04-29T02:17:08.515Z,61.97
2019-04-29T02:19:38.529Z,61.87
2019-04-29T02:22:12.949Z,61.96
2019-04-29T02:24:46.118Z,61.89
2019-04-29T02:27:16.060Z,62.11
2019-04-29T02:29:46.234Z,62.06
2019-04-29T02:32:16.390Z,61.91
2019-04-29T02:34:46.204Z,61.89
2019-04-29T02:37:21.090Z,61.90
2019-04-29T02:39:57.208Z,62.07
2019-04-29T02:42:34.893Z,62.04
2019-04-29T02:45:10.727Z,62.20
2019-04-29T02:47:40.569Z,62.29
2019-04-29T02:50:11.035Z,62.14
2019-04-29T02:52:40.849Z,61.99
2019-04-29T02:55:13.699Z,62.07
2019-04-29T02:57:53.056Z,62.12
2019-04-29T03:00:31.446Z,62.13
2019-04-29T03:03:14.039Z,62.08
2019-04-29T03:05:49.992Z,62.00
2019-04-29T03:08:19.845Z,62.11
2019-04-29T03:10:49.755Z,62.07
2019-04-29T03:13:19.972Z,62.07
2019-04-29T03:15:50.838Z,61.93
2019-04-29T03:18:23.397Z,61.86
2019-04-29T03:20:58.353Z,61.74
2019-04-29T03:23:28.482Z,61.89
2019-04-29T03:25:58.688Z,61.99
2019-04-29T03:28:28.769Z,61.97
2019-04-29T03:30:58.899Z,61.98
2019-04-29T03:33:29.158Z,61.77
2019-04-29T03:35:59.992Z,61.78
2019-04-29T03:38:30.101Z,61.93
2019-04-29T03:41:00.324Z,62.22
2019-04-29T03:43:30.664Z,62.23
2019-04-29T03:46:00.464Z,62.16
2019-04-29T03:48:30.283Z,61.98
2019-04-29T03:51:00.178Z,61.85
2019-04-29T03:53:30.065Z,61.84
2019-04-29T03:56:00.084Z,61.75
2019-04-29T03:58:29.876Z,61.85
2019-04-29T04:01:20.531Z,61.82
2019-04-29T04:03:55.172Z,61.72
2019-04-29T04:06:37.758Z,62.24
2019-04-29T04:09:14.516Z,66.27
2019-04-29T04:11:44.445Z,62.58
2019-04-29T04:14:14.816Z,62.28
2019-04-29T04:17:19.971Z,62.17
2019-04-29T04:19:48.089Z,62.06
2019-04-29T04:22:18.060Z,62.13
2019-04-29T04:24:47.882Z,62.08
2019-04-29T04:27:17.668Z,62.06
2019-04-29T04:29:47.546Z,62.08
2019-04-29T04:32:18.764Z,62.04
2019-04-29T04:35:40.268Z,62.06
2019-04-29T04:38:10.250Z,62.01
2019-04-29T04:40:47.593Z,62.13
2019-04-29T04:43:19.463Z,62.25
2019-04-29T04:45:50.894Z,62.45
2019-04-29T04:48:20.677Z,62.37
2019-04-29T04:50:51.331Z,62.38
2019-04-29T04:53:21.299Z,62.36
2019-04-29T04:55:56.688Z,62.22
2019-04-29T04:58:26.709Z,61.93
2019-04-29T05:00:56.599Z,61.85
2019-04-29T05:03:26.560Z,61.67
2019-04-29T05:05:57.030Z,61.50
2019-04-29T05:08:26.877Z,61.34
2019-04-29T05:10:56.620Z,61.08
2019-04-29T05:13:28.711Z,60.81
2019-04-29T05:15:58.853Z,60.89
2019-04-29T05:18:28.840Z,60.90
2019-04-29T05:20:59.070Z,61.02
2019-04-29T05:23:28.969Z,61.19
2019-04-29T05:25:58.763Z,61.04
2019-04-29T05:28:28.739Z,61.47
2019-04-29T05:30:58.585Z,61.49
2019-04-29T05:33:28.722Z,62.09
2019-04-29T05:36:09.595Z,62.01
2019-04-29T05:38:55.344Z,61.22
2019-04-29T05:41:30.014Z,61.36
2019-04-29T05:44:31.798Z,61.40
2019-04-29T05:47:11.676Z,61.58
2019-04-29T05:49:49.132Z,61.30
2019-04-29T05:52:26.231Z,60.91
2019-04-29T05:54:56.419Z,60.82
2019-04-29T05:57:27.089Z,60.53
2019-04-29T05:59:57.032Z,60.48
2019-04-29T06:02:33.234Z,60.39
2019-04-29T06:04:58.702Z,60.45
2019-04-29T06:07:28.563Z,60.86
2019-04-29T06:09:58.412Z,60.76
2019-04-29T06:12:28.161Z,60.76
2019-04-29T06:14:58.455Z,60.59
2019-04-29T06:17:28.471Z,60.46
2019-04-29T06:19:58.583Z,60.38
2019-04-29T06:22:28.790Z,60.36
2019-04-29T06:24:58.628Z,60.49
2019-04-29T06:27:28.476Z,60.85
2019-04-29T06:30:02.869Z,60.74
2019-04-29T06:32:30.376Z,60.45
2019-04-29T06:35:00.658Z,60.42
2019-04-29T06:37:30.610Z,60.25
2019-04-29T06:40:00.464Z,60.22
2019-04-29T06:42:33.537Z,60.32
2019-04-29T06:45:03.963Z,59.94
2019-04-29T06:47:33.909Z,59.76
2019-04-29T06:50:04.354Z,60.06
2019-04-29T06:52:34.135Z,60.04
2019-04-29T06:55:04.661Z,59.95
2019-04-29T06:57:34.892Z,59.76
2019-04-29T07:00:05.660Z,59.74
2019-04-29T07:02:35.493Z,59.56
2019-04-29T07:05:06.478Z,59.21
2019-04-29T07:07:36.636Z,59.24
2019-04-29T07:10:06.763Z,59.15
2019-04-29T07:12:36.636Z,59.10
2019-04-29T07:15:07.548Z,59.16
2019-04-29T07:17:41.310Z,59.12
2019-04-29T07:20:12.281Z,59.10
2019-04-29T07:22:42.296Z,58.98
2019-04-29T07:25:12.217Z,58.83
2019-04-29T07:27:44.192Z,58.91
2019-04-29T07:30:14.892Z,59.28
2019-04-29T07:32:47.151Z,59.76
2019-04-29T07:35:16.738Z,59.89
2019-04-29T07:37:46.603Z,59.64
2019-04-29T07:40:17.376Z,59.54
2019-04-29T07:42:47.361Z,59.29
2019-04-29T07:45:28.148Z,59.52
2019-04-29T07:48:01.836Z,60.10
2019-04-29T07:50:30.124Z,60.32
2019-04-29T07:53:00.024Z,60.44
2019-04-29T07:55:31.001Z,60.30
2019-04-29T07:58:01.662Z,60.21
2019-04-29T08:00:35.586Z,60.26
2019-04-29T08:03:08.007Z,60.08
2019-04-29T08:05:37.931Z,60.29
2019-04-29T08:08:07.946Z,60.60
2019-04-29T08:10:52.568Z,60.31
2019-04-29T08:13:12.709Z,60.08
2019-04-29T08:15:43.625Z,59.90
2019-04-29T08:18:16.263Z,60.02
2019-04-29T08:20:46.393Z,60.27
2019-04-29T08:23:16.421Z,60.26
2019-04-29T08:25:46.693Z,60.14
2019-04-29T08:28:16.622Z,60.17
2019-04-29T08:30:47.377Z,60.85
2019-04-29T08:33:18.235Z,60.85
2019-04-29T08:35:48.128Z,61.16
2019-04-29T08:38:18.694Z,60.80
2019-04-29T08:40:49.984Z,60.82
2019-04-29T08:43:37.961Z,61.02
2019-04-29T08:46:13.701Z,61.22
2019-04-29T08:48:45.919Z,60.98
2019-04-29T08:51:15.568Z,60.51
2019-04-29T08:53:45.529Z,60.73
2019-04-29T08:56:15.495Z,61.21
2019-04-29T08:58:49.185Z,61.84
2019-04-29T09:01:17.226Z,61.94
2019-04-29T09:03:47.001Z,61.72
2019-04-29T09:06:16.860Z,61.36
2019-04-29T09:08:54.639Z,61.20
2019-04-29T09:11:19.090Z,60.98
2019-04-29T09:13:49.309Z,60.88
2019-04-29T09:16:19.531Z,61.20
2019-04-29T09:18:49.863Z,61.55
2019-04-29T09:21:19.966Z,61.34
2019-04-29T09:23:49.825Z,61.36
2019-04-29T09:26:43.251Z,61.27
2019-04-29T09:29:31.836Z,61.27
2019-04-29T09:32:02.019Z,61.46
2019-04-29T09:34:31.925Z,62.15
2019-04-29T09:37:02.101Z,62.55
2019-04-29T09:39:43.069Z,63.06
2019-04-29T09:42:30.752Z,63.47
2019-04-29T09:45:19.554Z,63.37
2019-04-29T09:47:49.387Z,63.70
2019-04-29T09:50:19.828Z,63.76
2019-04-29T09:52:50.320Z,64.05
2019-04-29T09:55:21.421Z,63.94
2019-04-29T09:57:51.250Z,63.70
2019-04-29T10:00:52.928Z,62.97
2019-04-29T10:03:31.377Z,63.38
2019-04-29T10:06:08.166Z,63.77
2019-04-29T10:08:38.015Z,63.51
2019-04-29T10:11:08.719Z,63.38
2019-04-29T10:13:38.920Z,63.19
2019-04-29T10:16:16.524Z,63.64
2019-04-29T10:18:53.952Z,64.02
2019-04-29T10:21:24.246Z,63.87
2019-04-29T10:23:54.188Z,63.32
2019-04-29T10:26:25.077Z,63.97
2019-04-29T10:28:59.136Z,64.57
2019-04-29T10:31:29.228Z,64.90
2019-04-29T10:34:00.158Z,64.46
2019-04-29T10:36:30.401Z,63.77
2019-04-29T10:39:04.905Z,64.19
2019-04-29T10:41:40.371Z,64.07
2019-04-29T10:44:31.734Z,63.97
2019-04-29T10:47:34.804Z,64.00
2019-04-29T10:50:15.516Z,63.51
2019-04-29T10:52:46.383Z,63.84
2019-04-29T10:55:17.863Z,64.74
2019-04-29T10:57:49.709Z,64.84
2019-04-29T11:00:35.991Z,65.38
2019-04-29T11:03:06.164Z,65.51
2019-04-29T11:05:38.848Z,65.79
2019-04-29T11:08:20.952Z,65.59
2019-04-29T11:10:50.814Z,65.46
2019-04-29T11:13:20.725Z,66.02
2019-04-29T11:15:51.260Z,66.39
2019-04-29T11:18:23.339Z,66.03
2019-04-29T11:20:55.322Z,65.46
2019-04-29T11:23:37.202Z,64.91
2019-04-29T11:26:25.278Z,65.76
2019-04-29T11:28:56.921Z,66.29
2019-04-29T11:31:27.029Z,65.53
2019-04-29T11:34:11.497Z,65.05
2019-04-29T11:36:44.068Z,65.22
2019-04-29T11:39:15.701Z,64.92
2019-04-29T11:41:49.942Z,65.15
2019-04-29T11:44:21.837Z,65.17
2019-04-29T11:46:51.675Z,64.87
2019-04-29T11:49:27.451Z,65.16
2019-04-29T11:52:09.044Z,65.77
2019-04-29T11:54:29.226Z,65.97
2019-04-29T11:56:59.200Z,65.72
2019-04-29T11:59:37.408Z,66.08
2019-04-29T12:02:44.143Z,66.14
2019-04-29T12:05:04.187Z,66.27
2019-04-29T12:07:34.164Z,66.75
2019-04-29T12:10:06.512Z,66.68
2019-04-29T12:12:36.942Z,66.97
2019-04-29T12:15:23.110Z,66.98
2019-04-29T12:18:04.274Z,67.22
2019-04-29T12:20:51.617Z,67.22
2019-04-29T12:23:21.763Z,67.43
2019-04-29T12:25:52.138Z,67.35
2019-04-29T12:28:22.119Z,67.74
2019-04-29T12:30:54.881Z,66.99
2019-04-29T12:33:36.937Z,66.57
2019-04-29T12:36:11.164Z,66.30
2019-04-29T12:38:58.599Z,66.23
2019-04-29T12:41:49.290Z,66.26
2019-04-29T12:44:34.629Z,66.65
2019-04-29T12:47:02.449Z,67.23
2019-04-29T12:49:32.388Z,67.42
2019-04-29T12:52:02.292Z,67.57
2019-04-29T12:54:32.176Z,67.92
2019-04-29T12:57:02.065Z,67.46
2019-04-29T12:59:35.577Z,67.35
2019-04-29T13:02:24.267Z,67.10
2019-04-29T13:05:00.801Z,67.42
2019-04-29T13:07:56.111Z,67.89
2019-04-29T13:10:42.324Z,67.62
2019-04-29T13:13:15.759Z,67.49
2019-04-29T13:15:54.492Z,67.55
2019-04-29T13:18:34.626Z,67.46
2019-04-29T13:21:10.261Z,67.47
2019-04-29T13:23:53.560Z,67.37
2019-04-29T13:26:08.202Z,67.82
2019-04-29T13:31:11.290Z,67.58
2019-04-29T13:33:22.638Z,66.93
2019-04-29T13:33:41.351Z,67.51
2019-04-29T13:36:11.541Z,67.81
2019-04-29T13:38:42.823Z,67.89
2019-04-29T13:41:18.558Z,68.41
2019-04-29T13:43:45.010Z,68.54
2019-04-29T13:46:28.430Z,68.79
2019-04-29T13:49:23.569Z,68.79
2019-04-29T13:51:54.368Z,68.27
2019-04-29T13:54:24.431Z,69.01
2019-04-29T13:56:56.714Z,69.03
2019-04-29T13:59:33.661Z,67.98
2019-04-29T14:02:31.432Z,67.69
2019-04-29T14:05:00.176Z,67.73
2019-04-29T14:07:30.769Z,67.64
2019-04-29T14:10:01.168Z,66.86
2019-04-29T14:12:48.748Z,67.75
2019-04-29T14:15:03.006Z,68.09
2019-04-29T14:17:35.622Z,67.95
2019-04-29T14:20:05.354Z,68.76
2019-04-29T14:22:35.224Z,69.43
2019-04-29T14:25:05.277Z,68.76
2019-04-29T14:27:35.170Z,68.55
2019-04-29T14:30:10.440Z,68.92
2019-04-29T14:32:42.380Z,69.11
2019-04-29T14:35:19.703Z,68.91
2019-04-29T14:37:55.319Z,68.65
2019-04-29T14:40:21.524Z,69.10
2019-04-29T14:43:26.270Z,69.19
2019-04-29T14:46:15.995Z,68.40
2019-04-29T14:48:45.627Z,68.27
2019-04-29T14:51:15.527Z,68.06
2019-04-29T14:53:56.391Z,66.99
2019-04-29T14:56:17.401Z,66.70
2019-04-29T14:58:47.571Z,66.00
2019-04-29T15:01:28.716Z,66.28
2019-04-29T15:04:17.294Z,66.55
2019-04-29T15:06:35.168Z,66.12
2019-04-29T15:09:08.727Z,66.54
2019-04-29T15:11:47.388Z,66.98
2019-04-29T15:14:48.130Z,66.89
2019-04-29T15:17:44.950Z,66.65
2019-04-29T15:20:34.890Z,66.63
2019-04-29T15:23:05.066Z,71.48
2019-04-29T15:25:34.936Z,66.63
2019-04-29T15:28:04.886Z,66.66
2019-04-29T15:30:36.875Z,66.63
2019-04-29T15:33:07.926Z,66.91
2019-04-29T15:35:38.173Z,66.76
2019-04-29T15:38:08.944Z,66.58
2019-04-29T15:40:43.039Z,66.45
2019-04-29T15:43:11.050Z,66.39
2019-04-29T15:45:41.028Z,66.30
2019-04-29T15:48:10.941Z,65.96
2019-04-29T15:50:40.751Z,66.31
2019-04-29T15:53:10.817Z,66.62
2019-04-29T15:55:42.170Z,66.27
2019-04-29T15:58:12.115Z,66.37
2019-04-29T16:00:43.483Z,66.84
2019-04-29T16:03:17.831Z,67.37
2019-04-29T16:06:19.793Z,66.98
2019-04-29T16:08:58.378Z,66.79
2019-04-29T16:11:42.652Z,66.98
2019-04-29T16:14:17.775Z,66.91
2019-04-29T16:16:47.759Z,67.31
2019-04-29T16:19:17.718Z,66.94
2019-04-29T16:21:47.583Z,67.03
2019-04-29T16:24:26.525Z,67.36
2019-04-29T16:26:53.447Z,67.30
2019-04-29T16:29:20.967Z,67.52
2019-04-29T16:31:54.942Z,67.46
2019-04-29T16:34:22.402Z,67.59
2019-04-29T16:36:52.688Z,66.99
2019-04-29T16:39:22.709Z,66.73
2019-04-29T16:42:11.044Z,66.79
2019-04-29T16:44:42.530Z,67.27
2019-04-29T16:47:13.659Z,67.28
2019-04-29T16:49:44.544Z,67.61
2019-04-29T16:52:14.813Z,67.83
2019-04-29T16:54:44.676Z,67.64
2019-04-29T16:57:14.815Z,67.82
2019-04-29T16:59:44.584Z,68.00
2019-04-29T17:02:19.427Z,67.59
2019-04-29T17:04:46.113Z,67.64
2019-04-29T17:07:17.059Z,67.25
2019-04-29T17:10:09.028Z,67.36
2019-04-29T17:12:42.851Z,67.14
2019-04-29T17:15:24.220Z,67.28
2019-04-29T17:17:44.989Z,67.21
2019-04-29T17:20:15.566Z,67.10
2019-04-29T17:22:45.599Z,67.37
2019-04-29T17:25:15.693Z,67.57
2019-04-29T17:27:55.743Z,67.83
2019-04-29T17:30:54.444Z,67.70
2019-04-29T17:33:49.711Z,67.40
2019-04-29T17:36:22.930Z,67.60
2019-04-29T17:38:47.518Z,67.17
2019-04-29T17:41:17.352Z,67.00
2019-04-29T17:44:14.485Z,67.18
2019-04-29T17:47:02.706Z,67.10
2019-04-29T17:49:54.793Z,67.03
2019-04-29T17:52:27.994Z,67.46
2019-04-29T17:55:05.827Z,67.59
2019-04-29T17:57:43.401Z,67.71
2019-04-29T18:00:43.746Z,67.52
2019-04-29T18:03:41.186Z,67.47
2019-04-29T18:06:12.607Z,67.53
2019-04-29T18:09:04.937Z,67.70
2019-04-29T18:11:49.610Z,68.19
2019-04-29T18:14:09.454Z,68.19
2019-04-29T18:16:43.652Z,68.00
2019-04-29T18:19:19.892Z,68.22
2019-04-29T18:22:18.091Z,68.08
2019-04-29T18:24:56.831Z,67.60
2019-04-29T18:27:27.788Z,67.79
2019-04-29T18:29:58.036Z,67.83
2019-04-29T18:32:35.651Z,68.04
2019-04-29T18:34:59.899Z,68.08
2019-04-29T18:37:30.372Z,68.10
2019-04-29T18:40:03.390Z,67.88
2019-04-29T18:42:33.761Z,68.09
2019-04-29T18:45:05.086Z,68.30
2019-04-29T18:47:38.615Z,68.28
2019-04-29T18:50:09.046Z,67.87
2019-04-29T18:52:38.862Z,68.18
2019-04-29T18:55:08.891Z,68.42
2019-04-29T18:57:39.131Z,68.76
2019-04-29T19:00:12.092Z,68.74
2019-04-29T19:02:47.355Z,68.51
2019-04-29T19:05:21.371Z,68.74
2019-04-29T19:07:55.150Z,68.62
2019-04-29T19:10:32.979Z,68.73
2019-04-29T19:12:59.774Z,68.77
2019-04-29T19:15:27.677Z,68.81
2019-04-29T19:17:59.777Z,68.80
2019-04-29T19:20:29.151Z,68.35
2019-04-29T19:23:05.681Z,68.74
2019-04-29T19:25:32.402Z,68.99
2019-04-29T19:28:11.943Z,68.69
2019-04-29T19:30:35.641Z,68.50
2019-04-29T19:33:08.797Z,68.40
2019-04-29T19:35:38.703Z,69.17
2019-04-29T19:38:12.458Z,69.17
2019-04-29T19:40:42.642Z,69.09
2019-04-29T19:43:15.364Z,69.17
2019-04-29T19:45:48.846Z,69.37
2019-04-29T19:48:16.536Z,69.25
2019-04-29T19:50:50.094Z,69.41
2019-04-29T19:53:18.457Z,68.79
2019-04-29T19:55:48.422Z,68.78
2019-04-29T19:58:28.265Z,68.85
2019-04-29T20:00:51.490Z,69.20
2019-04-29T20:03:25.189Z,69.34
2019-04-29T20:06:07.998Z,68.78
2019-04-29T20:08:50.094Z,69.01
2019-04-29T20:11:12.285Z,69.18
2019-04-29T20:13:39.658Z,69.17
2019-04-29T20:16:23.002Z,69.22
2019-04-29T20:19:15.208Z,69.07
2019-04-29T20:21:37.980Z,69.16
2019-04-29T20:24:09.810Z,68.95
2019-04-29T20:26:43.558Z,68.90
2019-04-29T20:29:11.661Z,69.08
2019-04-29T20:31:48.520Z,69.01
2019-04-29T20:34:13.571Z,68.95
2019-04-29T20:36:45.523Z,69.32
2019-04-29T20:39:20.758Z,69.47
2019-04-29T20:41:48.853Z,69.51
2019-04-29T20:44:18.846Z,69.42
2019-04-29T20:47:12.702Z,69.74
2019-04-29T20:49:20.796Z,69.45
2019-04-29T20:51:55.608Z,69.57
2019-04-29T20:54:27.703Z,70.11
2019-04-29T20:57:04.942Z,70.18
2019-04-29T20:59:30.266Z,70.23
2019-04-29T21:02:12.073Z,71.11
2019-04-29T21:04:39.300Z,71.07
2019-04-29T21:07:07.040Z,71.64
2019-04-29T21:09:37.136Z,71.22
2019-04-29T21:12:20.997Z,71.58
2019-04-29T21:14:56.217Z,71.36
2019-04-29T21:17:30.679Z,71.58
2019-04-29T21:19:57.184Z,71.90
2019-04-29T21:22:27.455Z,71.93
2019-04-29T21:24:57.750Z,72.00
2019-04-29T21:27:27.741Z,72.45
2019-04-29T21:29:57.764Z,72.14
2019-04-29T21:32:30.504Z,72.18
2019-04-29T21:35:10.210Z,72.60
2019-04-29T21:37:48.061Z,72.56
2019-04-29T21:40:31.855Z,72.35
2019-04-29T21:43:13.670Z,72.19
2019-04-29T21:45:44.965Z,72.35
2019-04-29T21:48:13.106Z,72.05
2019-04-29T21:50:44.824Z,71.85
2019-04-29T21:53:15.804Z,71.68
2019-04-29T21:55:45.959Z,71.73
2019-04-29T21:58:15.905Z,71.85
2019-04-29T22:00:45.928Z,71.51
2019-04-29T22:03:19.813Z,71.68
2019-04-29T22:05:49.326Z,71.30
2019-04-29T22:08:25.096Z,71.52
2019-04-29T22:10:52.510Z,71.28
2019-04-29T22:13:22.696Z,71.12
2019-04-29T22:15:52.751Z,71.10
2019-04-29T22:18:22.648Z,71.43
2019-04-29T22:20:52.660Z,71.96
2019-04-29T22:23:22.689Z,71.58
2019-04-29T22:25:54.738Z,71.04
2019-04-29T22:28:24.893Z,71.17
2019-04-29T22:30:56.201Z,71.15
2019-04-29T22:33:29.694Z,71.74
2019-04-29T22:35:58.208Z,71.68
2019-04-29T22:38:28.151Z,72.09
2019-04-29T22:41:00.283Z,72.22
2019-04-29T22:43:48.475Z,72.22
2019-04-29T22:46:18.330Z,72.76
2019-04-29T22:48:48.844Z,72.43
2019-04-29T22:51:19.199Z,72.53
2019-04-29T22:53:48.915Z,72.64
2019-04-29T22:56:18.959Z,72.98
2019-04-29T22:58:48.827Z,73.12
2019-04-29T23:01:18.865Z,72.93
2019-04-29T23:03:48.901Z,72.59
2019-04-29T23:06:18.715Z,72.89
2019-04-29T23:08:48.586Z,72.86
2019-04-29T23:11:19.925Z,72.79
2019-04-29T23:13:49.918Z,72.99
2019-04-29T23:16:20.131Z,73.01
2019-04-29T23:18:50.159Z,73.83
2019-04-29T23:21:45.016Z,73.62
2019-04-29T23:24:30.040Z,73.53
2019-04-29T23:27:00.001Z,73.60
2019-04-29T23:29:30.026Z,73.30
2019-04-29T23:32:04.728Z,72.99
2019-04-29T23:34:31.563Z,73.04
2019-04-29T23:37:01.454Z,72.98
2019-04-29T23:39:31.468Z,72.74
2019-04-29T23:42:04.730Z,73.01
2019-04-29T23:44:32.939Z,73.25
2019-04-29T23:47:05.326Z,73.30
2019-04-29T23:49:35.420Z,73.30
2019-04-29T23:52:06.773Z,73.32
2019-04-29T23:54:44.210Z,73.37
2019-04-29T23:57:25.518Z,73.13
